Terminal Aerodrome Forecast
Issued by NWS

Current Version | Previous Version | Text Only | Print | Product List | Glossary Off
Versions: 1 2 3 4 5 6 7 8 9 10 11 12 13 14 15 16 17 18 19 20 21 22 23 24 25 26 27 28

148
FTUS41 KILN 230540
TAFLUK
TAF
KLUK 230540Z 2306/2406 05003KT 5SM BR OVC007
     FM230900 14004KT 2SM SHRA BR OVC008
     FM231300 22010KT 4SM BR VCSH OVC006
      TEMPO 2319/2321 2SM -SHRA OVC009
     FM232200 27006KT 5SM BR OVC015
     FM240300 34002KT 3SM BR OVC008=

USA.gov is the U.S. government's official web portal to all federal, state and local government web resources and services.